createdAt,value
2018-09-05T00:00:42.687Z,8.70
2018-09-05T00:03:10.601Z,8.77
2018-09-05T00:05:40.910Z,8.73
2018-09-05T00:08:09.345Z,8.63
2018-09-05T00:10:38.949Z,8.77
2018-09-05T00:13:07.005Z,8.77
2018-09-05T00:15:35.238Z,8.90
2018-09-05T00:18:03.261Z,8.60
2018-09-05T00:20:31.390Z,8.57
2018-09-05T00:23:01.401Z,8.63
2018-09-05T00:25:29.390Z,8.87
2018-09-05T00:27:58.046Z,8.93
2018-09-05T00:30:27.835Z,8.27
2018-09-05T00:32:57.362Z,9.07
2018-09-05T00:35:26.089Z,8.80
2018-09-05T00:37:54.036Z,8.63
2018-09-05T00:40:22.114Z,8.00
2018-09-05T00:42:50.302Z,8.43
2018-09-05T00:45:18.189Z,8.60
2018-09-05T00:47:46.777Z,8.50
2018-09-05T00:50:15.525Z,7.87
2018-09-05T00:52:44.376Z,8.80
2018-09-05T00:55:12.949Z,8.27
2018-09-05T00:57:41.042Z,8.37
2018-09-05T01:00:11.030Z,8.60
2018-09-05T01:02:38.910Z,8.07
2018-09-05T01:05:07.677Z,8.00
2018-09-05T01:07:39.031Z,8.23
2018-09-05T01:10:06.956Z,7.97
2018-09-05T01:12:35.014Z,7.83
2018-09-05T01:15:03.917Z,7.80
2018-09-05T01:17:32.952Z,8.33
2018-09-05T01:20:01.854Z,8.37
2018-09-05T01:22:29.725Z,8.30
2018-09-05T01:24:57.623Z,7.27
2018-09-05T01:27:26.301Z,8.13
2018-09-05T01:29:55.565Z,7.63
2018-09-05T01:32:25.420Z,8.00
2018-09-05T01:34:55.840Z,8.70
2018-09-05T01:37:23.716Z,8.57
2018-09-05T01:39:52.942Z,8.00
2018-09-05T01:42:23.700Z,8.20
2018-09-05T01:44:52.999Z,8.23
2018-09-05T01:47:20.913Z,7.83
2018-09-05T01:49:48.806Z,7.57
2018-09-05T01:52:17.466Z,7.23
2018-09-05T01:54:46.442Z,7.83
2018-09-05T01:57:15.199Z,7.77
2018-09-05T01:59:43.853Z,7.27
2018-09-05T02:02:13.554Z,7.93
2018-09-05T02:04:41.437Z,8.10
2018-09-05T02:07:09.482Z,8.03
2018-09-05T02:09:38.453Z,7.40
2018-09-05T02:12:08.438Z,7.63
2018-09-05T02:14:36.457Z,7.57
2018-09-05T02:17:04.578Z,7.23
2018-09-05T02:19:33.030Z,7.60
2018-09-05T02:22:00.893Z,7.27
2018-09-05T02:24:29.305Z,7.70
2018-09-05T02:26:59.161Z,7.03
2018-09-05T02:29:28.274Z,7.20
2018-09-05T02:31:57.017Z,6.60
2018-09-05T02:34:27.422Z,7.33
2018-09-05T02:36:55.308Z,6.87
2018-09-05T02:39:23.622Z,7.30
2018-09-05T02:41:51.507Z,6.90
2018-09-05T02:44:23.293Z,7.67
2018-09-05T02:46:51.764Z,6.63
2018-09-05T02:49:23.659Z,7.50
2018-09-05T02:51:52.283Z,7.03
2018-09-05T02:54:20.462Z,7.40
2018-09-05T02:56:49.657Z,6.73
2018-09-05T02:59:18.161Z,7.33
2018-09-05T03:01:46.970Z,7.20
2018-09-05T03:04:14.869Z,7.07
2018-09-05T03:06:42.745Z,6.97
2018-09-05T03:09:10.623Z,7.20
2018-09-05T03:11:39.598Z,7.50
2018-09-05T03:14:08.574Z,6.67
2018-09-05T03:16:37.961Z,6.90
2018-09-05T03:19:05.969Z,7.23
2018-09-05T03:21:34.062Z,7.00
2018-09-05T03:24:03.114Z,6.73
2018-09-05T03:26:31.001Z,6.50
2018-09-05T03:29:00.275Z,7.10
2018-09-05T03:31:29.044Z,7.37
2018-09-05T03:33:56.914Z,6.00
2018-09-05T03:36:32.166Z,6.97
2018-09-05T03:39:00.489Z,6.87
2018-09-05T03:41:29.346Z,6.70
2018-09-05T03:43:57.706Z,7.07
2018-09-05T03:46:25.813Z,6.30
2018-09-05T03:48:53.680Z,6.87
2018-09-05T03:51:21.661Z,6.80
2018-09-05T03:53:49.981Z,6.20
2018-09-05T03:56:17.881Z,6.73
2018-09-05T03:58:47.002Z,6.50
2018-09-05T04:01:15.361Z,6.70
2018-09-05T04:03:45.742Z,7.27
2018-09-05T04:06:21.949Z,6.37
2018-09-05T04:08:52.105Z,6.40
2018-09-05T04:11:20.682Z,5.90
2018-09-05T04:13:49.489Z,6.53
2018-09-05T04:16:17.373Z,6.47
2018-09-05T04:18:45.909Z,6.47
2018-09-05T04:21:13.881Z,6.83
2018-09-05T04:23:46.194Z,6.57
2018-09-05T04:26:15.173Z,6.70
2018-09-05T04:28:44.074Z,6.47
2018-09-05T04:31:13.328Z,6.20
2018-09-05T04:33:41.928Z,6.47
2018-09-05T04:36:12.398Z,6.63
2018-09-05T04:38:41.582Z,6.50
2018-09-05T04:41:10.281Z,6.40
2018-09-05T04:43:40.420Z,5.93
2018-09-05T04:46:09.762Z,6.30
2018-09-05T04:48:38.269Z,5.63
2018-09-05T04:51:06.777Z,6.00
2018-09-05T04:53:39.066Z,6.47
2018-09-05T04:56:06.961Z,6.43
2018-09-05T04:58:34.829Z,6.30
2018-09-05T05:01:03.635Z,6.07
2018-09-05T05:03:38.264Z,6.50
2018-09-05T05:06:07.091Z,6.57
2018-09-05T05:08:35.601Z,6.23
2018-09-05T05:11:04.908Z,6.63
2018-09-05T05:13:32.868Z,5.90
2018-09-05T05:16:01.881Z,6.20
2018-09-05T05:18:31.611Z,6.60
2018-09-05T05:20:59.475Z,6.13
2018-09-05T05:23:28.769Z,5.50
2018-09-05T05:25:56.589Z,6.10
2018-09-05T05:28:24.673Z,5.53
2018-09-05T05:30:55.750Z,5.60
2018-09-05T05:33:24.647Z,6.27
2018-09-05T05:35:53.946Z,5.37
2018-09-05T05:38:23.190Z,6.50
2018-09-05T05:40:51.165Z,6.00
2018-09-05T05:43:19.673Z,5.60
2018-09-05T05:45:48.803Z,5.43
2018-09-05T05:48:16.937Z,5.83
2018-09-05T05:50:44.801Z,5.70
2018-09-05T05:53:13.103Z,6.03
2018-09-05T05:55:42.460Z,5.97
2018-09-05T05:58:10.841Z,5.90
2018-09-05T06:00:39.269Z,5.30
2018-09-05T06:03:07.201Z,6.10
2018-09-05T06:05:36.089Z,6.00
2018-09-05T06:08:05.909Z,5.57
2018-09-05T06:10:35.561Z,6.07
2018-09-05T06:13:03.810Z,5.63
2018-09-05T06:15:32.771Z,5.90
2018-09-05T06:18:00.680Z,6.37
2018-09-05T06:20:29.186Z,5.80
2018-09-05T06:22:58.039Z,6.13
2018-09-05T06:25:26.285Z,7.03
2018-09-05T06:27:56.747Z,8.13
2018-09-05T06:30:26.550Z,7.37
2018-09-05T06:32:54.353Z,8.90
2018-09-05T06:35:22.205Z,10.60
2018-09-05T06:37:50.402Z,10.60
2018-09-05T06:40:19.642Z,9.93
2018-09-05T06:42:48.089Z,10.20
2018-09-05T06:45:18.023Z,7.63
2018-09-05T06:47:46.482Z,7.37
2018-09-05T06:50:14.350Z,9.37
2018-09-05T06:52:43.407Z,7.67
2018-09-05T06:55:11.322Z,8.10
2018-09-05T06:57:39.993Z,7.07
2018-09-05T07:00:08.652Z,9.20
2018-09-05T07:02:36.789Z,9.13
2018-09-05T07:05:04.693Z,7.77
2018-09-05T07:07:32.889Z,6.90
2018-09-05T07:10:01.867Z,9.37
2018-09-05T07:12:31.635Z,8.00
2018-09-05T07:15:00.362Z,8.90
2018-09-05T07:17:29.773Z,7.30
2018-09-05T07:19:59.504Z,10.80
2018-09-05T07:22:31.154Z,7.70
2018-09-05T07:25:00.371Z,17.80
2018-09-05T07:27:28.517Z,15.90
2018-09-05T07:29:56.705Z,20.60
2018-09-05T07:32:29.422Z,14.40
2018-09-05T07:34:58.549Z,10.27
2018-09-05T07:37:27.032Z,11.03
2018-09-05T07:39:55.601Z,11.37
2018-09-05T07:42:25.976Z,8.90
2018-09-05T07:44:54.726Z,8.77
2018-09-05T07:47:23.866Z,8.03
2018-09-05T07:49:51.749Z,9.60
2018-09-05T07:52:20.665Z,14.63
2018-09-05T07:54:49.193Z,12.10
2018-09-05T07:57:17.890Z,8.43
2018-09-05T07:59:47.341Z,9.60
2018-09-05T08:02:16.173Z,10.43
2018-09-05T08:04:45.316Z,9.10
2018-09-05T08:07:14.006Z,8.37
2018-09-05T08:09:42.417Z,8.07
2018-09-05T08:12:10.610Z,8.07
2018-09-05T08:14:39.920Z,7.87
2018-09-05T08:17:08.018Z,11.23
2018-09-05T08:19:36.221Z,8.93
2018-09-05T08:22:04.106Z,8.70
2018-09-05T08:24:33.502Z,21.77
2018-09-05T08:27:01.981Z,43.73
2018-09-05T08:29:31.901Z,47.70
2018-09-05T08:32:00.092Z,42.17
2018-09-05T08:34:29.590Z,18.50
2018-09-05T08:36:58.300Z,17.00
2018-09-05T08:39:26.699Z,17.43
2018-09-05T08:41:54.595Z,9.70
2018-09-05T08:44:23.630Z,10.13
2018-09-05T08:46:52.272Z,10.73
2018-09-05T08:49:21.673Z,11.43
2018-09-05T08:51:49.728Z,11.23
2018-09-05T08:54:17.657Z,11.17
2018-09-05T08:56:46.551Z,14.57
2018-09-05T08:59:16.594Z,13.03
2018-09-05T09:01:45.001Z,11.00
2018-09-05T09:04:15.429Z,12.77
2018-09-05T09:06:43.565Z,9.50
2018-09-05T09:09:12.784Z,9.97
2018-09-05T09:11:40.689Z,9.27
2018-09-05T09:14:09.425Z,10.47
2018-09-05T09:16:38.186Z,13.33
2018-09-05T09:19:06.997Z,8.13
2018-09-05T09:21:36.462Z,9.53
2018-09-05T09:24:04.621Z,8.40
2018-09-05T09:26:32.997Z,10.50
2018-09-05T09:29:01.009Z,12.47
2018-09-05T09:31:28.902Z,10.37
2018-09-05T09:33:58.154Z,10.57
2018-09-05T09:36:26.852Z,10.23
2018-09-05T09:38:55.774Z,8.30
2018-09-05T09:41:24.752Z,10.77
2018-09-05T09:43:53.509Z,11.47
2018-09-05T09:46:21.871Z,11.97
2018-09-05T09:48:50.414Z,13.10
2018-09-05T09:51:22.574Z,9.40
2018-09-05T09:53:57.321Z,10.90
2018-09-05T09:56:29.285Z,16.33
2018-09-05T09:58:57.134Z,14.60
2018-09-05T10:01:30.805Z,13.87
2018-09-05T10:04:05.115Z,13.37
2018-09-05T10:06:47.227Z,14.60
2018-09-05T10:09:21.788Z,13.60
2018-09-05T10:11:55.793Z,10.73
2018-09-05T10:14:29.225Z,11.07
2018-09-05T10:17:03.344Z,9.87
2018-09-05T10:19:31.553Z,12.20
2018-09-05T10:22:01.227Z,12.50
2018-09-05T10:24:29.231Z,11.40
2018-09-05T10:26:57.760Z,10.33
2018-09-05T10:29:25.658Z,11.13
2018-09-05T10:31:54.120Z,9.87
2018-09-05T10:34:27.460Z,8.93
2018-09-05T10:36:56.113Z,8.00
2018-09-05T10:39:24.598Z,7.97
2018-09-05T10:41:54.893Z,7.90
2018-09-05T10:44:26.358Z,7.40
2018-09-05T10:46:56.066Z,6.80
2018-09-05T10:49:24.704Z,6.97
2018-09-05T10:52:00.582Z,7.47
2018-09-05T10:54:30.877Z,6.97
2018-09-05T10:56:59.633Z,8.43
2018-09-05T10:59:28.867Z,6.10
2018-09-05T11:01:57.389Z,5.40
2018-09-05T11:04:26.822Z,6.23
2018-09-05T11:06:57.645Z,6.90
2018-09-05T11:09:26.017Z,8.43
2018-09-05T11:11:55.971Z,7.50
2018-09-05T11:14:24.863Z,6.97
2018-09-05T11:16:53.781Z,6.10
2018-09-05T11:19:21.657Z,6.90
2018-09-05T11:21:50.437Z,6.77
2018-09-05T11:24:19.058Z,7.73
2018-09-05T11:26:48.068Z,9.80
2018-09-05T11:29:17.417Z,6.23
2018-09-05T11:31:45.936Z,7.13
2018-09-05T11:34:15.367Z,5.87
2018-09-05T11:36:45.180Z,6.33
2018-09-05T11:39:18.785Z,6.20
2018-09-05T11:41:46.677Z,7.50
2018-09-05T11:44:14.557Z,10.80
2018-09-05T11:46:43.089Z,5.50
2018-09-05T11:49:11.338Z,6.10
2018-09-05T11:51:39.222Z,5.90
2018-09-05T11:54:08.922Z,7.77
2018-09-05T11:56:37.248Z,8.03
2018-09-05T11:59:06.278Z,6.23
2018-09-05T12:01:34.797Z,6.07
2018-09-05T12:04:02.841Z,7.60
2018-09-05T12:06:30.750Z,6.23
2018-09-05T12:08:59.785Z,5.90
2018-09-05T12:11:30.374Z,6.20
2018-09-05T12:14:00.157Z,7.10
2018-09-05T12:16:28.934Z,8.77
2018-09-05T12:18:57.809Z,6.13
2018-09-05T12:21:26.424Z,9.17
2018-09-05T12:23:54.822Z,6.93
2018-09-05T12:26:23.719Z,5.93
2018-09-05T12:28:52.603Z,8.47
2018-09-05T12:31:20.710Z,6.50
2018-09-05T12:33:49.054Z,6.07
2018-09-05T12:36:17.825Z,6.07
2018-09-05T12:38:47.591Z,6.00
2018-09-05T12:41:16.319Z,7.20
2018-09-05T12:43:45.449Z,6.60
2018-09-05T12:46:13.991Z,10.00
2018-09-05T12:48:42.785Z,7.47
2018-09-05T12:51:13.835Z,6.30
2018-09-05T12:53:42.825Z,8.17
2018-09-05T12:56:12.250Z,6.53
2018-09-05T12:58:40.661Z,6.37
2018-09-05T13:01:08.722Z,6.27
2018-09-05T13:03:37.251Z,6.83
2018-09-05T13:06:05.126Z,161.87
2018-09-05T13:08:33.029Z,106.27
2018-09-05T13:11:00.926Z,76.57
2018-09-05T13:13:28.808Z,41.30
2018-09-05T13:15:56.841Z,27.43
2018-09-05T13:18:25.202Z,23.20
2018-09-05T13:20:53.439Z,13.73
2018-09-05T13:23:22.293Z,19.47
2018-09-05T13:25:50.757Z,21.07
2018-09-05T13:28:19.557Z,12.00
2018-09-05T13:30:47.436Z,10.50
2018-09-05T13:33:15.800Z,11.03
2018-09-05T13:35:44.935Z,15.57
2018-09-05T13:38:13.124Z,18.27
2018-09-05T13:40:42.732Z,11.73
2018-09-05T13:43:15.398Z,12.63
2018-09-05T13:45:45.677Z,8.77
2018-09-05T13:48:13.675Z,8.70
2018-09-05T13:50:41.524Z,9.03
2018-09-05T13:53:13.456Z,8.87
2018-09-05T13:55:42.809Z,6.60
2018-09-05T13:58:11.342Z,8.17
2018-09-05T14:00:40.292Z,13.00
2018-09-05T14:03:09.787Z,12.87
2018-09-05T14:05:37.661Z,10.03
2018-09-05T14:08:06.588Z,9.23
2018-09-05T14:10:34.469Z,8.63
2018-09-05T14:13:02.974Z,9.33
2018-09-05T14:15:32.717Z,6.50
2018-09-05T14:18:02.734Z,9.97
2018-09-05T14:20:32.350Z,7.80
2018-09-05T14:23:01.702Z,8.13
2018-09-05T14:25:31.156Z,7.43
2018-09-05T14:27:59.981Z,7.57
2018-09-05T14:30:29.528Z,6.30
2018-09-05T14:32:58.878Z,7.07
2018-09-05T14:35:27.705Z,6.40
2018-09-05T14:37:56.708Z,6.60
2018-09-05T14:40:27.370Z,7.70
2018-09-05T14:42:56.985Z,6.10
2018-09-05T14:45:25.081Z,7.87
2018-09-05T14:47:55.173Z,7.67
2018-09-05T14:50:23.698Z,7.70
2018-09-05T14:52:53.445Z,7.73
2018-09-05T14:55:22.941Z,8.60
2018-09-05T14:57:54.277Z,11.57
2018-09-05T15:00:22.166Z,8.90
2018-09-05T15:02:50.505Z,7.37
2018-09-05T15:05:20.540Z,7.30
2018-09-05T15:07:50.575Z,8.10
2018-09-05T15:10:19.995Z,8.27
2018-09-05T15:12:49.581Z,9.10
2018-09-05T15:15:17.471Z,7.97
2018-09-05T15:17:45.983Z,11.03
2018-09-05T15:20:14.038Z,7.97
2018-09-05T15:22:42.349Z,9.50
2018-09-05T15:25:11.506Z,10.50
2018-09-05T15:27:39.741Z,9.80
2018-09-05T15:30:08.294Z,7.97
2018-09-05T15:32:36.241Z,9.07
2018-09-05T15:35:04.302Z,8.48
2018-09-05T15:37:32.953Z,7.30
2018-09-05T15:40:00.853Z,7.75
2018-09-05T15:42:30.507Z,6.95
2018-09-05T15:44:58.441Z,6.97
2018-09-05T15:47:28.925Z,6.78
2018-09-05T15:49:57.360Z,12.85
2018-09-05T15:52:25.713Z,7.15
2018-09-05T15:54:53.618Z,6.17
2018-09-05T15:57:21.831Z,63.02
2018-09-05T15:59:51.246Z,56.60
2018-09-05T16:02:19.537Z,32.05
2018-09-05T16:04:47.735Z,25.35
2018-09-05T16:07:15.596Z,29.80
2018-09-05T16:09:43.587Z,24.50
2018-09-05T16:12:11.964Z,22.50
2018-09-05T16:14:40.213Z,23.27
2018-09-05T16:17:09.086Z,23.52
2018-09-05T16:19:37.233Z,19.30
2018-09-05T16:22:06.498Z,16.65
2018-09-05T16:24:34.642Z,14.75
2018-09-05T16:27:02.673Z,14.63
2018-09-05T16:29:32.554Z,13.93
2018-09-05T16:32:01.233Z,17.23
2018-09-05T16:34:29.768Z,13.15
2018-09-05T16:36:58.525Z,12.30
2018-09-05T16:39:26.443Z,11.83
2018-09-05T16:41:54.617Z,13.10
2018-09-05T16:44:23.133Z,12.13
2018-09-05T16:46:52.165Z,11.57
2018-09-05T16:49:20.517Z,11.43
2018-09-05T16:51:49.821Z,12.33
2018-09-05T16:54:18.534Z,13.03
2018-09-05T16:56:47.250Z,12.58
2018-09-05T16:59:16.230Z,11.73
2018-09-05T17:01:45.194Z,10.78
2018-09-05T17:04:15.990Z,10.50
2018-09-05T17:06:44.249Z,11.55
2018-09-05T17:09:14.145Z,8.98
2018-09-05T17:11:42.696Z,9.25
2018-09-05T17:14:10.577Z,9.43
2018-09-05T17:16:40.460Z,10.58
2018-09-05T17:19:08.905Z,10.00
2018-09-05T17:21:37.628Z,10.43
2018-09-05T17:24:06.756Z,10.23
2018-09-05T17:26:35.997Z,10.32
2018-09-05T17:29:05.642Z,10.50
2018-09-05T17:31:34.321Z,9.13
2018-09-05T17:34:03.520Z,8.90
2018-09-05T17:36:31.738Z,8.98
2018-09-05T17:38:59.793Z,9.83
2018-09-05T17:41:27.889Z,11.30
2018-09-05T17:43:57.155Z,9.18
2018-09-05T17:46:25.533Z,9.53
2018-09-05T17:48:53.733Z,10.03
2018-09-05T17:51:22.113Z,9.20
2018-09-05T17:53:50.337Z,9.25
2018-09-05T17:56:18.950Z,9.45
2018-09-05T17:58:46.837Z,8.70
2018-09-05T18:01:19.455Z,8.45
2018-09-05T18:03:47.342Z,8.70
2018-09-05T18:06:15.924Z,9.23
2018-09-05T18:08:47.460Z,8.85
2018-09-05T18:11:16.597Z,11.43
2018-09-05T18:13:45.573Z,9.20
2018-09-05T18:16:14.046Z,8.80
2018-09-05T18:18:42.266Z,8.35
2018-09-05T18:21:11.295Z,9.23
2018-09-05T18:23:39.214Z,8.23
2018-09-05T18:26:08.646Z,8.23
2018-09-05T18:28:36.582Z,8.25
2018-09-05T18:31:07.243Z,8.50
2018-09-05T18:33:35.054Z,8.13
2018-09-05T18:36:03.584Z,8.30
2018-09-05T18:38:32.229Z,8.18
2018-09-05T18:41:00.853Z,8.13
2018-09-05T18:43:30.905Z,8.47
2018-09-05T18:45:58.941Z,9.30
2018-09-05T18:48:26.814Z,8.17
2018-09-05T18:50:55.392Z,9.13
2018-09-05T18:53:23.474Z,8.03
2018-09-05T18:55:56.089Z,8.03
2018-09-05T18:58:24.981Z,8.20
2018-09-05T19:00:54.046Z,8.70
2018-09-05T19:03:23.118Z,8.93
2018-09-05T19:05:51.938Z,8.23
2018-09-05T19:08:20.793Z,8.67
2018-09-05T19:10:49.715Z,7.80
2018-09-05T19:13:17.862Z,7.77
2018-09-05T19:15:47.652Z,7.27
2018-09-05T19:18:16.787Z,8.10
2018-09-05T19:20:44.608Z,7.97
2018-09-05T19:23:12.593Z,7.90
2018-09-05T19:25:41.143Z,8.10
2018-09-05T19:28:10.460Z,8.28
2018-09-05T19:30:38.873Z,7.63
2018-09-05T19:33:09.020Z,8.03
2018-09-05T19:35:37.444Z,7.43
2018-09-05T19:38:06.452Z,7.67
2018-09-05T19:40:34.613Z,8.23
2018-09-05T19:43:03.093Z,7.47
2018-09-05T19:45:30.965Z,7.80
2018-09-05T19:48:00.064Z,7.83
2018-09-05T19:50:29.472Z,7.70
2018-09-05T19:53:01.887Z,7.30
2018-09-05T19:55:31.767Z,7.93
2018-09-05T19:58:01.073Z,8.53
2018-09-05T20:00:30.405Z,6.97
2018-09-05T20:02:59.363Z,7.83
2018-09-05T20:05:27.961Z,7.93
2018-09-05T20:07:57.138Z,8.00
2018-09-05T20:10:25.709Z,7.50
2018-09-05T20:12:54.130Z,7.63
2018-09-05T20:15:22.848Z,7.17
2018-09-05T20:17:51.644Z,6.80
2018-09-05T20:20:21.124Z,7.53
2018-09-05T20:22:49.180Z,7.20
2018-09-05T20:25:17.046Z,6.43
2018-09-05T20:27:45.323Z,6.80
2018-09-05T20:30:14.197Z,7.07
2018-09-05T20:32:42.241Z,7.30
2018-09-05T20:35:11.196Z,7.43
2018-09-05T20:37:39.859Z,7.03
2018-09-05T20:40:08.598Z,7.30
2018-09-05T20:42:37.441Z,6.60
2018-09-05T20:45:08.385Z,6.83
2018-09-05T20:47:36.426Z,7.63
2018-09-05T20:50:05.146Z,7.07
2018-09-05T20:52:34.638Z,7.30
2018-09-05T20:55:03.798Z,7.13
2018-09-05T20:57:32.797Z,6.77
2018-09-05T21:00:00.976Z,6.80
2018-09-05T21:02:29.539Z,7.43
2018-09-05T21:04:57.621Z,6.47
2018-09-05T21:07:27.981Z,6.77
2018-09-05T21:09:57.878Z,6.83
2018-09-05T21:12:27.577Z,7.07
2018-09-05T21:14:55.743Z,6.87
2018-09-05T21:17:24.888Z,6.67
2018-09-05T21:19:54.191Z,6.70
2018-09-05T21:22:23.475Z,6.63
2018-09-05T21:24:51.357Z,6.57
2018-09-05T21:27:19.527Z,6.20
2018-09-05T21:29:48.093Z,6.20
2018-09-05T21:32:16.842Z,7.53
2018-09-05T21:34:48.860Z,7.10
2018-09-05T21:37:17.162Z,6.80
2018-09-05T21:39:46.186Z,6.80
2018-09-05T21:42:14.357Z,6.30
2018-09-05T21:44:42.436Z,6.47
2018-09-05T21:47:11.108Z,7.20
2018-09-05T21:49:38.973Z,6.70
2018-09-05T21:52:06.954Z,6.90
2018-09-05T21:54:36.117Z,6.67
2018-09-05T21:57:04.013Z,6.37
2018-09-05T21:59:32.546Z,6.47
2018-09-05T22:04:42.101Z,6.97
2018-09-05T22:07:10.687Z,6.50
2018-09-05T22:09:39.410Z,6.30
2018-09-05T22:12:07.778Z,6.23
2018-09-05T22:14:37.176Z,7.03
2018-09-05T22:17:06.101Z,6.67
2018-09-05T22:19:33.974Z,6.70
2018-09-05T22:22:02.544Z,6.47
2018-09-05T22:24:30.598Z,6.83
2018-09-05T22:27:00.372Z,6.97
2018-09-05T22:29:28.272Z,6.50
2018-09-05T22:31:57.173Z,6.37
2018-09-05T22:34:26.218Z,6.10
2018-09-05T22:36:55.066Z,6.30
2018-09-05T22:39:24.961Z,6.17
2018-09-05T22:41:52.951Z,6.90
2018-09-05T22:44:26.431Z,5.67
2018-09-05T22:47:00.106Z,5.90
2018-09-05T22:49:39.695Z,6.57
2018-09-05T22:54:26.054Z,6.97
2018-09-05T22:59:00.794Z,6.07
2018-09-05T23:01:39.911Z,6.33
2018-09-05T23:04:13.990Z,5.90
2018-09-05T23:06:48.856Z,6.27
2018-09-05T23:09:21.706Z,6.30
2018-09-05T23:11:58.070Z,7.07
2018-09-05T23:16:33.066Z,6.03
2018-09-05T23:19:07.741Z,6.47
2018-09-05T23:21:35.994Z,6.00
2018-09-05T23:24:05.234Z,6.47
2018-09-05T23:26:33.886Z,5.83
2018-09-05T23:29:02.610Z,6.10
2018-09-05T23:31:31.006Z,5.87
2018-09-05T23:33:59.662Z,6.20
2018-09-05T23:36:27.718Z,5.90
2018-09-05T23:38:56.548Z,5.93
2018-09-05T23:41:24.422Z,6.70
2018-09-05T23:43:53.259Z,6.50
2018-09-05T23:46:21.499Z,6.37
2018-09-05T23:48:49.738Z,6.37
2018-09-05T23:51:20.574Z,5.80
2018-09-05T23:53:48.465Z,6.23
2018-09-05T23:56:18.334Z,5.90
2018-09-05T23:58:46.942Z,6.07
